createdAt,value
2022-10-30T00:00:53.207Z,62.22
2022-10-30T00:03:20.871Z,64.12
2022-10-30T00:05:49.877Z,70.37
2022-10-30T00:08:19.152Z,67.35
2022-10-30T00:10:47.756Z,69.75
2022-10-30T00:13:15.136Z,75.22
2022-10-30T00:15:53.055Z,73.22
2022-10-30T00:18:20.987Z,75.37
2022-10-30T00:20:48.892Z,73.45
2022-10-30T00:23:16.733Z,71.20
2022-10-30T00:25:44.310Z,71.37
2022-10-30T00:28:11.885Z,72.80
2022-10-30T00:30:39.252Z,76.72
2022-10-30T00:33:06.865Z,72.47
2022-10-30T00:35:34.300Z,70.28
2022-10-30T00:38:03.038Z,77.57
2022-10-30T00:40:30.652Z,70.65
2022-10-30T00:42:57.988Z,66.37
2022-10-30T00:45:25.563Z,65.28
2022-10-30T00:47:58.514Z,73.60
2022-10-30T00:50:35.326Z,61.25
2022-10-30T00:53:08.201Z,66.47
2022-10-30T00:55:48.652Z,60.83
2022-10-30T00:58:18.063Z,64.80
2022-10-30T01:00:52.441Z,63.67
2022-10-30T01:03:21.772Z,57.67
2022-10-30T01:05:52.890Z,53.25
2022-10-30T01:08:20.734Z,57.40
2022-10-30T01:10:48.348Z,62.15
2022-10-30T01:13:16.709Z,57.88
2022-10-30T01:16:04.564Z,57.08
2022-10-30T01:18:45.641Z,59.50
2022-10-30T01:21:32.131Z,55.67
2022-10-30T01:24:32.933Z,59.30
2022-10-30T01:27:22.197Z,56.22
2022-10-30T01:30:07.891Z,55.15
2022-10-30T01:32:38.330Z,53.25
2022-10-30T01:35:10.622Z,55.10
2022-10-30T01:37:39.908Z,59.17
2022-10-30T01:40:17.195Z,49.75
2022-10-30T01:42:50.130Z,55.38
2022-10-30T01:45:26.903Z,52.60
2022-10-30T01:48:32.084Z,60.67
2022-10-30T01:51:36.465Z,61.17
2022-10-30T01:54:08.878Z,55.25
2022-10-30T01:56:40.270Z,54.00
2022-10-30T01:59:20.021Z,51.13
2022-10-30T02:01:48.399Z,50.10
2022-10-30T02:04:16.214Z,49.80
2022-10-30T02:06:43.625Z,49.85
2022-10-30T02:09:11.191Z,48.17
2022-10-30T02:11:41.893Z,52.47
2022-10-30T02:14:09.773Z,43.53
2022-10-30T02:16:43.120Z,47.72
2022-10-30T02:19:10.707Z,41.90
2022-10-30T02:21:38.498Z,42.78
2022-10-30T02:24:06.458Z,44.00
2022-10-30T02:26:34.103Z,42.08
2022-10-30T02:29:02.324Z,40.50
2022-10-30T02:31:29.771Z,43.20
2022-10-30T02:33:57.415Z,41.97
2022-10-30T02:36:25.147Z,44.50
2022-10-30T02:38:55.069Z,43.97
2022-10-30T02:41:24.178Z,43.75
2022-10-30T02:43:53.433Z,43.72
2022-10-30T02:46:21.031Z,43.08
2022-10-30T02:48:49.290Z,42.92
2022-10-30T02:51:16.707Z,42.53
2022-10-30T02:53:44.400Z,44.70
2022-10-30T02:56:13.362Z,47.92
2022-10-30T02:58:41.707Z,45.17
2022-10-30T03:01:11.852Z,40.33
2022-10-30T03:03:40.127Z,43.85
2022-10-30T03:06:10.143Z,38.15
2022-10-30T03:08:37.941Z,44.08
2022-10-30T03:11:15.130Z,40.92
2022-10-30T03:13:43.990Z,39.60
2022-10-30T03:16:14.663Z,44.10
2022-10-30T03:18:42.399Z,39.25
2022-10-30T03:21:12.010Z,40.88
2022-10-30T03:23:39.681Z,40.12
2022-10-30T03:26:07.542Z,42.55
2022-10-30T03:28:36.513Z,43.58
2022-10-30T03:31:06.991Z,40.60
2022-10-30T03:33:35.368Z,43.87
2022-10-30T03:36:03.081Z,38.20
2022-10-30T03:38:30.805Z,43.28
2022-10-30T03:40:58.740Z,41.60
2022-10-30T03:43:26.318Z,33.58
2022-10-30T03:45:55.076Z,35.05
2022-10-30T03:48:24.560Z,33.38
2022-10-30T03:50:56.668Z,34.30
2022-10-30T03:53:26.190Z,37.50
2022-10-30T03:55:57.669Z,34.28
2022-10-30T03:58:25.789Z,33.97
2022-10-30T04:00:53.591Z,31.40
2022-10-30T04:03:21.450Z,33.45
2022-10-30T04:05:51.037Z,30.12
2022-10-30T04:08:19.340Z,30.92
2022-10-30T04:10:47.940Z,32.63
2022-10-30T04:13:16.732Z,31.25
2022-10-30T04:15:54.209Z,28.52
2022-10-30T04:18:25.755Z,26.10
2022-10-30T04:20:53.731Z,27.65
2022-10-30T04:23:21.700Z,25.60
2022-10-30T04:25:49.498Z,26.70
2022-10-30T04:28:17.160Z,26.55
2022-10-30T04:30:46.864Z,22.20
2022-10-30T04:33:14.785Z,21.50
2022-10-30T04:35:42.662Z,22.98
2022-10-30T04:38:14.963Z,22.13
2022-10-30T04:40:43.547Z,21.42
2022-10-30T04:43:12.025Z,19.83
2022-10-30T04:45:40.583Z,25.27
2022-10-30T04:48:12.965Z,23.20
2022-10-30T04:50:41.852Z,22.80
2022-10-30T04:53:17.941Z,22.30
2022-10-30T04:55:45.791Z,24.70
2022-10-30T04:58:13.954Z,22.73
2022-10-30T05:00:42.896Z,21.90
2022-10-30T05:03:18.346Z,21.83
2022-10-30T05:05:47.221Z,21.33
2022-10-30T05:08:14.645Z,18.45
2022-10-30T05:10:42.055Z,19.25
2022-10-30T05:13:11.555Z,17.50
2022-10-30T05:15:38.999Z,21.67
2022-10-30T05:18:06.367Z,19.85
2022-10-30T05:20:34.082Z,17.70
2022-10-30T05:23:01.531Z,19.60
2022-10-30T05:25:29.106Z,21.30
2022-10-30T05:28:01.808Z,21.90
2022-10-30T05:30:31.450Z,18.75
2022-10-30T05:33:01.320Z,18.30
2022-10-30T05:35:29.743Z,19.27
2022-10-30T05:37:59.041Z,19.00
2022-10-30T05:40:27.128Z,23.65
2022-10-30T05:42:54.661Z,20.42
2022-10-30T05:45:22.838Z,21.27
2022-10-30T05:47:59.544Z,19.70
2022-10-30T05:50:30.524Z,20.67
2022-10-30T05:53:10.035Z,20.50
2022-10-30T05:55:38.566Z,20.90
2022-10-30T05:58:07.292Z,21.23
2022-10-30T06:00:40.585Z,23.10
2022-10-30T06:03:12.339Z,19.73
2022-10-30T06:05:40.179Z,23.33
2022-10-30T06:08:08.153Z,20.48
2022-10-30T06:10:36.778Z,23.55
2022-10-30T06:13:06.116Z,21.08
2022-10-30T06:15:34.071Z,23.02
2022-10-30T06:18:01.851Z,24.10
2022-10-30T06:20:30.911Z,22.62
2022-10-30T06:23:07.004Z,28.05
2022-10-30T06:25:40.650Z,31.30
2022-10-30T06:28:13.612Z,28.27
2022-10-30T06:30:41.365Z,29.25
2022-10-30T06:33:09.822Z,44.95
2022-10-30T06:35:37.575Z,49.13
2022-10-30T06:38:05.520Z,26.37
2022-10-30T06:40:33.327Z,26.00
2022-10-30T06:43:01.449Z,27.58
2022-10-30T06:45:29.187Z,27.73
2022-10-30T06:47:57.381Z,25.70
2022-10-30T06:50:25.176Z,28.00
2022-10-30T06:52:54.811Z,27.00
2022-10-30T06:55:22.442Z,27.35
2022-10-30T06:57:57.660Z,22.30
2022-10-30T07:00:25.778Z,24.27
2022-10-30T07:03:01.174Z,23.67
2022-10-30T07:05:29.621Z,24.63
2022-10-30T07:07:57.999Z,24.65
2022-10-30T07:10:25.368Z,24.15
2022-10-30T07:12:56.421Z,23.27
2022-10-30T07:15:27.959Z,24.15
2022-10-30T07:18:00.810Z,24.80
2022-10-30T07:20:30.744Z,25.20
2022-10-30T07:22:59.870Z,28.98
2022-10-30T07:25:27.405Z,27.62
2022-10-30T07:27:56.400Z,27.85
2022-10-30T07:33:03.363Z,26.83
2022-10-30T07:35:32.395Z,23.30
2022-10-30T07:38:03.660Z,24.85
2022-10-30T07:40:33.041Z,26.60
2022-10-30T07:43:01.881Z,28.25
2022-10-30T07:45:29.861Z,26.73
2022-10-30T07:47:58.147Z,28.30
2022-10-30T07:50:25.987Z,27.92
2022-10-30T07:52:53.308Z,28.83
2022-10-30T07:55:22.991Z,28.00
2022-10-30T07:57:52.763Z,28.50
2022-10-30T08:00:21.406Z,29.48
2022-10-30T08:02:56.556Z,27.60
2022-10-30T08:05:28.837Z,29.87
2022-10-30T08:07:59.046Z,27.20
2022-10-30T08:10:26.839Z,28.50
2022-10-30T08:12:54.442Z,27.90
2022-10-30T08:15:23.750Z,30.08
2022-10-30T08:17:51.459Z,26.92
2022-10-30T08:20:20.677Z,27.85
2022-10-30T08:22:53.732Z,29.98
2022-10-30T08:25:23.392Z,26.48
2022-10-30T08:27:52.207Z,29.58
2022-10-30T08:30:19.991Z,27.50
2022-10-30T08:32:47.773Z,29.73
2022-10-30T08:35:20.077Z,27.62
2022-10-30T08:37:47.846Z,25.85
2022-10-30T08:40:15.277Z,27.85
2022-10-30T08:42:50.559Z,28.77
2022-10-30T08:45:18.728Z,28.62
2022-10-30T08:47:48.045Z,28.52
2022-10-30T08:50:15.586Z,26.67
2022-10-30T08:52:42.923Z,30.45
2022-10-30T08:55:10.511Z,28.12
2022-10-30T08:57:37.914Z,24.95
2022-10-30T09:00:06.424Z,29.45
2022-10-30T09:02:39.314Z,26.73
2022-10-30T09:05:09.270Z,26.48
2022-10-30T09:07:38.375Z,29.60
2022-10-30T09:10:12.996Z,30.25
2022-10-30T09:12:42.307Z,36.35
2022-10-30T09:15:09.726Z,29.98
2022-10-30T09:17:38.692Z,31.52
2022-10-30T09:20:06.645Z,32.40
2022-10-30T09:22:34.583Z,28.60
2022-10-30T09:25:02.401Z,31.50
2022-10-30T09:27:32.644Z,81.28
2022-10-30T09:30:00.279Z,41.72
2022-10-30T09:32:28.943Z,33.08
2022-10-30T09:34:56.917Z,31.17
2022-10-30T09:37:24.475Z,29.55
2022-10-30T09:39:52.136Z,29.05
2022-10-30T09:42:41.324Z,28.62
2022-10-30T09:45:31.447Z,34.03
2022-10-30T09:48:52.865Z,28.55
2022-10-30T09:51:57.803Z,24.42
2022-10-30T09:54:54.807Z,25.40
2022-10-30T09:57:34.839Z,25.10
2022-10-30T10:00:22.659Z,27.40
2022-10-30T10:03:10.667Z,23.92
2022-10-30T10:05:48.487Z,25.02
2022-10-30T10:08:23.926Z,26.35
2022-10-30T10:11:16.649Z,26.87
2022-10-30T10:14:09.427Z,26.73
2022-10-30T10:19:12.088Z,24.65
2022-10-30T10:21:49.252Z,27.48
2022-10-30T10:24:23.018Z,24.73
2022-10-30T10:27:10.189Z,24.23
2022-10-30T10:29:56.593Z,25.00
2022-10-30T10:32:44.972Z,22.00
2022-10-30T10:35:33.558Z,64.75
2022-10-30T10:38:28.666Z,31.37
2022-10-30T10:41:26.353Z,25.85
2022-10-30T10:44:16.742Z,28.92
2022-10-30T10:47:06.955Z,28.40
2022-10-30T10:50:00.299Z,26.80
2022-10-30T10:52:41.824Z,24.50
2022-10-30T10:55:18.248Z,24.37
2022-10-30T10:57:46.994Z,25.50
2022-10-30T11:00:19.321Z,23.58
2022-10-30T11:03:25.136Z,23.10
2022-10-30T11:05:58.930Z,25.42
2022-10-30T11:08:31.518Z,24.92
2022-10-30T11:13:30.425Z,24.27
2022-10-30T11:16:09.824Z,27.65
2022-10-30T11:18:37.393Z,26.73
2022-10-30T11:21:08.535Z,30.60
2022-10-30T11:23:42.962Z,23.60
2022-10-30T11:26:20.238Z,29.33
2022-10-30T11:28:58.794Z,27.98
2022-10-30T11:31:30.231Z,26.83
2022-10-30T11:33:57.869Z,25.17
2022-10-30T11:36:25.959Z,26.12
2022-10-30T11:38:54.886Z,31.58
2022-10-30T11:41:22.295Z,27.83
2022-10-30T11:43:49.724Z,27.08
2022-10-30T11:46:22.764Z,31.30
2022-10-30T11:48:54.882Z,28.80
2022-10-30T11:51:35.115Z,31.95
2022-10-30T11:54:03.086Z,28.02
2022-10-30T11:56:31.714Z,24.45
2022-10-30T11:59:00.770Z,28.75
2022-10-30T12:01:32.128Z,26.80
2022-10-30T12:04:22.739Z,22.80
2022-10-30T12:07:45.476Z,26.45
2022-10-30T12:10:25.286Z,23.73
2022-10-30T12:12:52.742Z,25.95
2022-10-30T12:15:24.979Z,24.80
2022-10-30T12:17:53.806Z,26.67
2022-10-30T12:20:21.563Z,24.00
2022-10-30T12:22:49.254Z,24.45
2022-10-30T12:25:27.203Z,25.02
2022-10-30T12:28:05.559Z,23.33
2022-10-30T12:30:35.987Z,25.42
2022-10-30T12:33:15.576Z,21.58
2022-10-30T12:35:58.699Z,25.25
2022-10-30T12:38:46.094Z,23.42
2022-10-30T12:41:27.672Z,22.77
2022-10-30T12:44:02.544Z,24.48
2022-10-30T12:46:33.222Z,25.00
2022-10-30T12:49:15.114Z,27.23
2022-10-30T12:51:48.095Z,24.67
2022-10-30T12:54:35.723Z,23.70
2022-10-30T12:57:08.756Z,20.42
2022-10-30T12:59:41.246Z,22.87
2022-10-30T13:02:33.051Z,23.20
2022-10-30T13:05:06.125Z,23.52
2022-10-30T13:07:39.232Z,24.45
2022-10-30T13:10:30.925Z,21.55
2022-10-30T13:13:15.796Z,22.48
2022-10-30T13:15:49.861Z,24.77
2022-10-30T13:18:19.232Z,21.98
2022-10-30T13:21:13.360Z,20.33
2022-10-30T13:24:02.610Z,20.85
2022-10-30T13:27:05.363Z,21.60
2022-10-30T13:30:02.197Z,20.50
2022-10-30T13:32:45.574Z,24.00
2022-10-30T13:35:35.632Z,22.52
2022-10-30T13:38:31.294Z,21.58
2022-10-30T13:41:28.269Z,23.38
2022-10-30T13:44:33.378Z,23.92
2022-10-30T13:47:23.172Z,24.60
2022-10-30T13:49:53.779Z,20.77
2022-10-30T13:52:22.427Z,23.95
2022-10-30T13:55:00.136Z,23.58
2022-10-30T13:57:55.342Z,22.65
2022-10-30T14:00:28.529Z,26.05
2022-10-30T14:03:05.070Z,22.90
2022-10-30T14:05:38.122Z,23.08
2022-10-30T14:08:37.867Z,23.55
2022-10-30T14:11:06.599Z,21.73
2022-10-30T14:13:46.423Z,21.62
2022-10-30T14:16:32.270Z,23.42
2022-10-30T14:19:02.818Z,20.83
2022-10-30T14:21:40.909Z,20.33
2022-10-30T14:24:14.689Z,19.08
2022-10-30T14:26:52.851Z,21.08
2022-10-30T14:29:37.666Z,22.42
2022-10-30T14:32:13.959Z,24.08
2022-10-30T14:34:42.822Z,19.42
2022-10-30T14:37:10.982Z,21.62
2022-10-30T14:39:48.431Z,20.67
2022-10-30T14:42:18.907Z,20.62
2022-10-30T14:45:07.926Z,22.77
2022-10-30T14:47:46.764Z,20.45
2022-10-30T14:50:22.214Z,22.35
2022-10-30T14:53:27.737Z,26.27
2022-10-30T14:59:14.583Z,24.05
2022-10-30T15:02:09.899Z,24.23
2022-10-30T15:05:17.635Z,22.58
2022-10-30T15:07:52.399Z,23.83
2022-10-30T15:10:31.835Z,25.62
2022-10-30T15:13:21.426Z,25.88
2022-10-30T15:15:59.487Z,26.87
2022-10-30T15:18:30.367Z,26.27
2022-10-30T15:21:04.598Z,26.20
2022-10-30T15:23:34.713Z,26.58
2022-10-30T15:26:09.812Z,26.05
2022-10-30T15:28:39.006Z,26.62
2022-10-30T15:31:33.388Z,26.42
2022-10-30T15:34:01.699Z,27.80
2022-10-30T15:36:35.562Z,26.37
2022-10-30T15:39:11.200Z,30.15
2022-10-30T15:41:55.469Z,25.90
2022-10-30T15:44:25.637Z,27.98
2022-10-30T15:46:55.866Z,24.45
2022-10-30T15:49:37.865Z,33.58
2022-10-30T15:52:14.519Z,28.87
2022-10-30T15:54:43.917Z,32.17
2022-10-30T15:57:57.376Z,31.92
2022-10-30T16:02:36.739Z,32.90
2022-10-30T16:05:20.003Z,29.73
2022-10-30T16:07:47.635Z,31.80
2022-10-30T16:10:18.379Z,33.45
2022-10-30T16:12:45.769Z,35.33
2022-10-30T16:15:24.905Z,30.98
2022-10-30T16:18:15.785Z,31.70
2022-10-30T16:20:45.876Z,32.15
2022-10-30T16:23:14.211Z,34.05
2022-10-30T16:25:46.735Z,36.03
2022-10-30T16:28:37.554Z,37.25
2022-10-30T16:31:06.537Z,40.38
2022-10-30T16:33:35.797Z,40.72
2022-10-30T16:36:04.547Z,38.20
2022-10-30T16:38:37.029Z,36.00
2022-10-30T16:41:06.636Z,35.85
2022-10-30T16:43:35.354Z,30.37
2022-10-30T16:46:14.951Z,38.33
2022-10-30T16:48:50.758Z,32.22
2022-10-30T16:51:18.502Z,34.90
2022-10-30T16:53:50.943Z,36.08
2022-10-30T16:56:24.515Z,29.10
2022-10-30T16:58:54.062Z,28.52
2022-10-30T17:01:26.287Z,36.10
2022-10-30T17:03:54.860Z,31.25
2022-10-30T17:06:44.510Z,30.88
2022-10-30T17:09:26.003Z,28.00
2022-10-30T17:12:13.051Z,32.45
2022-10-30T17:15:06.921Z,30.50
2022-10-30T17:17:36.262Z,34.13
2022-10-30T17:20:22.856Z,38.40
2022-10-30T17:23:13.747Z,35.03
2022-10-30T17:25:41.538Z,30.90
2022-10-30T17:28:28.429Z,29.87
2022-10-30T17:30:56.319Z,40.50
2022-10-30T17:33:26.498Z,42.42
2022-10-30T17:38:26.547Z,50.10
2022-10-30T17:40:54.194Z,46.42
2022-10-30T17:43:24.809Z,39.58
2022-10-30T17:45:52.394Z,34.45
2022-10-30T17:48:21.058Z,37.95
2022-10-30T17:50:48.583Z,40.35
2022-10-30T17:53:18.463Z,36.92
2022-10-30T17:55:49.627Z,33.20
2022-10-30T17:58:19.350Z,27.83
2022-10-30T18:00:46.903Z,28.75
2022-10-30T18:03:14.523Z,34.05
2022-10-30T18:05:42.933Z,33.13
2022-10-30T18:08:10.247Z,32.10
2022-10-30T18:10:37.879Z,31.95
2022-10-30T18:13:05.475Z,30.65
2022-10-30T18:15:41.453Z,33.75
2022-10-30T18:18:09.078Z,31.48
2022-10-30T18:20:36.794Z,31.92
2022-10-30T18:23:04.910Z,33.60
2022-10-30T18:25:35.060Z,33.65
2022-10-30T18:28:02.948Z,31.75
2022-10-30T18:30:30.509Z,28.12
2022-10-30T18:32:58.508Z,31.60
2022-10-30T18:35:31.580Z,30.80
2022-10-30T18:37:59.309Z,28.08
2022-10-30T18:40:26.606Z,32.97
2022-10-30T18:42:54.196Z,39.05
2022-10-30T18:45:30.253Z,38.05
2022-10-30T18:47:58.789Z,35.05
2022-10-30T18:50:28.131Z,32.65
2022-10-30T18:52:55.435Z,34.80
2022-10-30T18:55:34.589Z,41.83
2022-10-30T18:58:02.818Z,35.83
2022-10-30T19:00:39.762Z,38.25
2022-10-30T19:03:18.508Z,40.83
2022-10-30T19:05:50.245Z,40.60
2022-10-30T19:08:17.949Z,51.45
2022-10-30T19:10:46.447Z,46.90
2022-10-30T19:13:20.008Z,42.33
2022-10-30T19:15:58.964Z,39.72
2022-10-30T19:18:28.404Z,36.10
2022-10-30T19:21:05.086Z,36.47
2022-10-30T19:23:33.768Z,41.20
2022-10-30T19:26:01.422Z,38.47
2022-10-30T19:28:30.747Z,39.42
2022-10-30T19:30:58.185Z,36.58
2022-10-30T19:33:26.012Z,36.95
2022-10-30T19:35:58.368Z,38.00
2022-10-30T19:38:25.989Z,40.47
2022-10-30T19:40:53.678Z,44.15
2022-10-30T19:43:21.103Z,41.72
2022-10-30T19:45:51.356Z,37.28
2022-10-30T19:48:40.650Z,36.78
2022-10-30T19:51:11.814Z,40.17
2022-10-30T19:53:40.068Z,39.20
2022-10-30T19:56:10.226Z,39.33
2022-10-30T19:58:37.797Z,43.95
2022-10-30T20:01:05.236Z,40.17
2022-10-30T20:03:32.896Z,39.92
2022-10-30T20:06:00.236Z,36.70
2022-10-30T20:08:28.669Z,39.22
2022-10-30T20:10:58.267Z,41.33
2022-10-30T20:13:27.102Z,47.17
2022-10-30T20:15:55.941Z,43.45
2022-10-30T20:18:30.264Z,39.78
2022-10-30T20:21:03.541Z,48.22
2022-10-30T20:23:31.206Z,38.17
2022-10-30T20:26:01.630Z,37.55
2022-10-30T20:28:32.737Z,37.00
2022-10-30T20:31:00.315Z,39.30
2022-10-30T20:33:28.032Z,38.30
2022-10-30T20:35:56.131Z,35.28
2022-10-30T20:38:30.436Z,33.00
2022-10-30T20:40:59.316Z,35.30
2022-10-30T20:43:34.788Z,39.05
2022-10-30T20:46:03.577Z,37.78
2022-10-30T20:48:31.818Z,38.17
2022-10-30T20:51:00.730Z,38.10
2022-10-30T20:53:28.775Z,38.20
2022-10-30T20:55:57.006Z,40.17
2022-10-30T20:58:24.747Z,41.30
2022-10-30T21:00:55.222Z,40.20
2022-10-30T21:03:22.912Z,39.95
2022-10-30T21:05:56.259Z,34.90
2022-10-30T21:08:24.939Z,35.15
2022-10-30T21:10:52.258Z,35.60
2022-10-30T21:13:19.582Z,37.00
2022-10-30T21:15:47.140Z,36.90
2022-10-30T21:18:14.439Z,37.67
2022-10-30T21:20:41.751Z,40.47
2022-10-30T21:23:09.914Z,37.97
2022-10-30T21:25:37.302Z,36.78
2022-10-30T21:28:04.794Z,39.28
2022-10-30T21:30:33.239Z,42.13
2022-10-30T21:33:00.677Z,36.65
2022-10-30T21:35:28.358Z,40.03
2022-10-30T21:37:55.908Z,41.80
2022-10-30T21:40:23.595Z,40.78
2022-10-30T21:42:50.911Z,44.80
2022-10-30T21:45:18.471Z,41.67
2022-10-30T21:47:45.796Z,40.40
2022-10-30T21:50:13.250Z,44.22
2022-10-30T21:52:40.920Z,42.50
2022-10-30T21:55:08.712Z,48.15
2022-10-30T21:57:36.108Z,44.85
2022-10-30T22:00:06.179Z,39.50
2022-10-30T22:02:35.652Z,48.67
2022-10-30T22:05:03.093Z,53.42
2022-10-30T22:07:30.415Z,49.53
2022-10-30T22:09:57.985Z,47.15
2022-10-30T22:12:25.292Z,46.65
2022-10-30T22:14:52.934Z,42.90
2022-10-30T22:17:20.585Z,43.08
2022-10-30T22:19:47.880Z,45.55
2022-10-30T22:22:15.181Z,46.13
2022-10-30T22:24:42.731Z,50.10
2022-10-30T22:27:10.102Z,45.75
2022-10-30T22:29:37.405Z,48.38
2022-10-30T22:32:05.063Z,40.80
2022-10-30T22:34:32.358Z,41.33
2022-10-30T22:37:00.065Z,45.42
2022-10-30T22:39:27.632Z,46.35
2022-10-30T22:41:54.929Z,42.28
2022-10-30T22:44:22.978Z,48.45
2022-10-30T22:46:50.566Z,43.13
2022-10-30T22:49:17.862Z,46.90
2022-10-30T22:51:45.183Z,47.45
2022-10-30T22:54:13.058Z,42.62
2022-10-30T22:56:40.897Z,44.83
2022-10-30T22:59:11.419Z,49.92
2022-10-30T23:01:40.321Z,51.75
2022-10-30T23:04:10.580Z,47.85
2022-10-30T23:06:37.896Z,47.20
2022-10-30T23:09:08.493Z,47.55
2022-10-30T23:11:36.129Z,44.53
2022-10-30T23:14:03.684Z,47.95
2022-10-30T23:16:31.446Z,50.75
2022-10-30T23:19:00.587Z,43.97
2022-10-30T23:21:30.242Z,50.00
2022-10-30T23:23:58.121Z,53.42
2022-10-30T23:26:28.679Z,54.65
2022-10-30T23:28:57.059Z,55.78
2022-10-30T23:31:29.727Z,53.60
2022-10-30T23:33:58.775Z,63.15
2022-10-30T23:36:26.663Z,60.10
2022-10-30T23:38:59.332Z,60.33
2022-10-30T23:41:28.943Z,61.00
2022-10-30T23:44:01.760Z,63.65
2022-10-30T23:46:29.368Z,63.33
2022-10-30T23:48:56.844Z,53.45
2022-10-30T23:51:24.590Z,56.85
2022-10-30T23:53:52.183Z,56.55
2022-10-30T23:56:20.152Z,54.60
2022-10-30T23:58:49.266Z,51.88
